Time;durP1;ratioP1;P1;durP2;ratioP2;P2;SDS_P1;SDS_P2;PMS_P1;PMS_P2;Temp;Humidity;BMP_temperature;BMP_pressure;BME280_temperature;BME280_humidity;BME280_pressure;Samples;Min_cycle;Max_cycle;Signal;HPM_P1;HPM_P2
2021/08/07 00:01:09;;;;;;;8.10;1.87;;;15.60;99.90;;;;;;20837443;28;20482;-77
2021/08/07 00:11:10;;;;;;;3.50;1.70;;;15.70;99.90;;;;;;20844300;28;20032;-78
2021/08/07 00:21:11;;;;;;;8.33;1.50;;;15.30;99.90;;;;;;20852227;28;20500;-79
2021/08/07 00:31:12;;;;;;;10.97;1.30;;;15.40;99.90;;;;;;20831972;28;20120;-78
2021/08/07 00:41:14;;;;;;;6.43;1.20;;;15.20;99.90;;;;;;20832164;28;20121;-78
2021/08/07 00:51:16;;;;;;;6.77;1.43;;;15.40;99.90;;;;;;20818565;28;20029;-79
2021/08/07 01:01:20;;;;;;;4.95;1.40;;;15.40;99.90;;;;;;20832554;28;20383;-78
2021/08/07 01:11:45;;;;;;;5.03;1.60;;;15.20;99.90;;;;;;20817226;28;20044;-79
2021/08/07 01:22:00;;;;;;;20.13;1.63;;;15.30;99.90;;;;;;20850178;28;20029;-80
2021/08/07 01:32:10;;;;;;;7.25;1.75;;;15.40;99.90;;;;;;20842064;28;20026;-79
2021/08/07 01:42:15;;;;;;;4.10;1.38;;;15.40;99.90;;;;;;20849210;28;20030;-77
2021/08/07 01:52:21;;;;;;;13.20;1.83;;;15.40;99.90;;;;;;20830592;28;20037;-78
2021/08/07 02:02:34;;;;;;;7.43;2.13;;;15.40;99.90;;;;;;20843204;28;20033;-77
2021/08/07 02:12:35;;;;;;;6.75;2.55;;;15.40;99.90;;;;;;20826626;28;20621;-78
2021/08/07 02:22:48;;;;;;;4.55;2.35;;;15.30;99.90;;;;;;20842718;28;20692;-80
2021/08/07 02:32:50;;;;;;;6.70;2.63;;;15.30;99.90;;;;;;20825545;28;20026;-79
2021/08/07 02:42:55;;;;;;;8.32;2.42;;;15.20;99.90;;;;;;20840998;28;20029;-79
2021/08/07 02:52:57;;;;;;;3.83;2.22;;;15.20;99.90;;;;;;20825673;28;20069;-79
2021/08/07 03:02:59;;;;;;;8.27;2.40;;;15.30;99.90;;;;;;20840862;28;20666;-80
2021/08/07 03:13:02;;;;;;;13.23;2.60;;;15.20;99.90;;;;;;20838736;28;20033;-79
2021/08/07 03:23:08;;;;;;;3.60;2.22;;;15.20;99.90;;;;;;20839758;28;20036;-79
2021/08/07 03:33:12;;;;;;;4.47;2.40;;;15.20;99.90;;;;;;20857578;28;20037;-79
2021/08/07 03:43:13;;;;;;;6.90;3.03;;;15.20;99.90;;;;;;20836818;28;20033;-78
2021/08/07 03:53:15;;;;;;;12.85;3.25;;;15.10;99.90;;;;;;20836025;28;20034;-78
2021/08/07 04:03:19;;;;;;;13.80;3.15;;;15.00;99.90;;;;;;20851911;28;20033;-79
2021/08/07 04:13:20;;;;;;;9.15;2.90;;;14.90;99.90;;;;;;20834869;28;20063;-78
2021/08/07 04:23:23;;;;;;;9.98;2.97;;;15.00;99.90;;;;;;20832881;28;20041;-79
2021/08/07 04:33:24;;;;;;;9.00;2.73;;;15.00;99.90;;;;;;20867448;28;20048;-77
2021/08/07 04:43:25;;;;;;;6.50;3.10;;;15.00;99.90;;;;;;20825383;28;20075;-77
2021/08/07 04:53:26;;;;;;;7.28;3.03;;;15.00;99.90;;;;;;20843388;28;20085;-77
2021/08/07 05:03:33;;;;;;;9.32;3.38;;;15.00;99.90;;;;;;20835054;28;20048;-76
2021/08/07 05:13:36;;;;;;;5.82;2.90;;;15.00;99.90;;;;;;20820214;28;20394;-78
2021/08/07 05:23:40;;;;;;;5.00;2.40;;;15.00;99.90;;;;;;20840379;28;20060;-79
2021/08/07 05:33:43;;;;;;;11.10;2.53;;;15.10;99.90;;;;;;20839147;28;20029;-77
2021/08/07 05:43:44;;;;;;;9.30;2.47;;;15.40;99.90;;;;;;20837422;28;20030;-79
2021/08/07 05:53:46;;;;;;;12.93;2.90;;;15.40;99.90;;;;;;20818283;28;20395;-77
2021/08/07 06:03:47;;;;;;;8.37;3.03;;;15.40;99.90;;;;;;20835517;28;20033;-77
2021/08/07 06:13:48;;;;;;;7.65;3.00;;;15.30;99.90;;;;;;20839215;28;20025;-78
2021/08/07 06:23:49;;;;;;;5.07;2.70;;;15.50;99.90;;;;;;20930625;28;20487;-79
2021/08/07 06:33:51;;;;;;;6.97;2.43;;;15.60;99.90;;;;;;20914036;28;20108;-77
2021/08/07 06:43:52;;;;;;;6.47;2.75;;;15.50;99.90;;;;;;20913968;28;20059;-78
2021/08/07 06:54:06;;;;;;;4.60;2.40;;;15.50;99.90;;;;;;20914565;28;20760;-78
2021/08/07 07:04:08;;;;;;;8.70;2.65;;;15.60;99.90;;;;;;20912324;28;20086;-80
2021/08/07 07:14:09;;;;;;;6.03;2.23;;;15.80;99.90;;;;;;20909447;28;20033;-78
2021/08/07 07:24:10;;;;;;;8.00;2.40;;;16.00;99.90;;;;;;20933059;28;20025;-79
2021/08/07 07:34:11;;;;;;;6.20;2.63;;;15.70;99.90;;;;;;20911083;28;20574;-78
2021/08/07 07:44:12;;;;;;;8.07;2.63;;;15.90;99.90;;;;;;20914924;28;20409;-78
2021/08/07 07:54:14;;;;;;;7.35;2.63;;;16.30;99.90;;;;;;20932892;28;20061;-77
2021/08/07 08:04:15;;;;;;;4.25;2.40;;;16.50;99.90;;;;;;20912123;28;20094;-79
2021/08/07 08:14:16;;;;;;;5.33;2.47;;;16.90;99.90;;;;;;20908103;28;20124;-78
2021/08/07 08:24:17;;;;;;;10.27;2.33;;;17.30;99.90;;;;;;20889632;28;20036;-78
2021/08/07 08:34:19;;;;;;;6.88;2.70;;;17.50;99.90;;;;;;20905409;28;20037;-81
2021/08/07 08:44:20;;;;;;;8.37;2.80;;;18.00;99.90;;;;;;20886983;28;20033;-81
2021/08/07 08:54:21;;;;;;;6.57;2.07;;;18.80;99.90;;;;;;20900768;28;20040;-79
2021/08/07 09:04:23;;;;;;;7.43;2.27;;;19.50;99.90;;;;;;20882426;28;20033;-79
2021/08/07 09:14:30;;;;;;;9.85;2.30;;;20.50;99.90;;;;;;20905940;28;20033;-77
2021/08/07 09:24:57;;;;;;;5.67;2.30;;;20.40;99.90;;;;;;20885549;28;20032;-80
2021/08/07 09:35:07;;;;;;;6.28;2.30;;;19.80;99.90;;;;;;20898251;28;20287;-79
2021/08/07 09:45:09;;;;;;;5.88;1.73;;;19.50;99.90;;;;;;20896232;28;20555;-79
2021/08/07 09:55:13;;;;;;;5.47;1.80;;;19.50;99.90;;;;;;20894177;28;20029;-79
2021/08/07 10:05:25;;;;;;;8.80;2.27;;;20.00;99.90;;;;;;20913181;28;20036;-79
2021/08/07 10:15:27;;;;;;;4.80;1.60;;;20.00;99.90;;;;;;20910176;28;20028;-80
2021/08/07 10:25:28;;;;;;;;;;;19.80;99.90;;;;;;20909370;28;20039;-78
2021/08/07 10:35:30;;;;;;;5.88;1.52;;;20.20;99.90;;;;;;20895301;28;19913;-78
2021/08/07 10:45:32;;;;;;;4.55;2.10;;;20.40;99.90;;;;;;20826394;28;20036;-77
2021/08/07 10:55:46;;;;;;;4.60;1.20;;;19.90;99.90;;;;;;20825834;28;20033;-78
2021/08/07 11:05:51;;;;;;;5.07;1.77;;;19.70;99.90;;;;;;20808897;28;20041;-79
2021/08/07 11:16:21;;;;;;;1.63;1.05;;;19.60;99.90;;;;;;20810810;28;20041;-80
2021/08/07 11:26:48;;;;;;;1.23;0.88;;;19.50;99.90;;;;;;20807842;28;20049;-79
2021/08/07 11:37:12;;;;;;;2.53;1.00;;;19.30;99.90;;;;;;20863277;28;20063;-80
2021/08/07 11:47:15;;;;;;;2.17;0.80;;;19.10;99.90;;;;;;20793730;28;20334;-77
2021/08/07 11:57:25;;;;;;;3.15;1.15;;;18.90;99.90;;;;;;20826655;28;20506;-76
2021/08/07 12:07:26;;;;;;;3.28;1.33;;;18.50;99.90;;;;;;20814491;28;20379;-77
2021/08/07 12:17:27;;;;;;;2.50;1.50;;;17.80;99.90;;;;;;20807949;28;20475;-77
2021/08/07 12:27:27;;;;;;;3.67;0.90;;;17.50;99.90;;;;;;20836329;28;20053;-80
2021/08/07 12:37:33;;;;;;;3.87;1.03;;;17.30;99.90;;;;;;20837304;28;20034;-79
2021/08/07 12:47:35;;;;;;;5.07;1.65;;;17.10;99.90;;;;;;20827676;28;20030;-80
2021/08/07 12:57:36;;;;;;;6.95;2.95;;;16.70;99.90;;;;;;20817803;28;20032;-79
2021/08/07 13:07:42;;;;;;;6.73;2.40;;;16.50;99.90;;;;;;20853789;28;20029;-79
2021/08/07 13:17:45;;;;;;;6.30;3.13;;;16.40;99.90;;;;;;20893723;28;20057;-78
2021/08/07 13:27:47;;;;;;;5.22;2.05;;;16.20;99.90;;;;;;20888792;28;20136;-79
2021/08/07 13:37:48;;;;;;;7.45;2.40;;;16.20;99.90;;;;;;20879540;28;20025;-79
2021/08/07 13:47:49;;;;;;;7.77;3.33;;;16.30;99.90;;;;;;20857777;28;20038;-78
2021/08/07 13:57:50;;;;;;;3.80;2.20;;;16.00;99.90;;;;;;20874668;28;20029;-78
2021/08/07 14:07:51;;;;;;;6.13;2.73;;;16.00;99.90;;;;;;20871339;28;20064;-78
2021/08/07 14:17:52;;;;;;;11.43;7.13;;;16.00;99.90;;;;;;20858944;28;20185;-79
2021/08/07 14:27:54;;;;;;;18.87;10.10;;;15.90;99.90;;;;;;20859307;28;20037;-81
2021/08/07 14:37:55;;;;;;;4.45;2.28;;;16.00;99.90;;;;;;20856513;28;20068;-78
2021/08/07 14:47:56;;;;;;;3.73;2.00;;;15.90;99.90;;;;;;20866599;28;20033;-77
2021/08/07 14:57:57;;;;;;;32.23;15.90;;;15.90;99.90;;;;;;20839364;28;20037;-78
2021/08/07 15:07:58;;;;;;;5.83;4.20;;;15.90;99.90;;;;;;20803171;28;20026;-77
2021/08/07 15:17:59;;;;;;;23.83;12.60;;;15.60;99.90;;;;;;20810333;28;20025;-76
2021/08/07 15:28:00;;;;;;;8.07;2.20;;;16.00;99.90;;;;;;20817077;28;20060;-78
2021/08/07 15:38:05;;;;;;;3.60;1.87;;;15.90;99.90;;;;;;20826446;28;20032;-77
2021/08/07 15:48:06;;;;;;;3.22;1.27;;;15.80;99.90;;;;;;20792198;28;20390;-77
2021/08/07 15:58:07;;;;;;;27.63;9.87;;;15.80;99.90;;;;;;20830146;28;20498;-78
2021/08/07 16:08:08;;;;;;;4.53;1.50;;;16.00;99.90;;;;;;20875099;28;20025;-77
2021/08/07 16:18:09;;;;;;;1.37;0.80;;;15.80;99.90;;;;;;20909499;28;20039;-77
2021/08/07 16:28:09;;;;;;;12.93;4.13;;;15.90;99.90;;;;;;20898180;28;20029;-78
2021/08/07 16:38:10;;;;;;;5.70;3.03;;;15.80;99.90;;;;;;20917114;28;20391;-77
2021/08/07 16:48:11;;;;;;;4.97;2.97;;;15.90;99.90;;;;;;20905897;28;20033;-77
2021/08/07 16:58:12;;;;;;;3.93;1.10;;;15.70;99.90;;;;;;20908921;28;20048;-77
2021/08/07 17:08:13;;;;;;;2.00;1.10;;;15.80;99.90;;;;;;20904032;28;20041;-77
2021/08/07 17:18:14;;;;;;;6.27;2.43;;;15.90;99.90;;;;;;20922940;28;20063;-76
2021/08/07 17:28:15;;;;;;;3.37;1.73;;;16.00;99.90;;;;;;20919308;28;20032;-77
2021/08/07 17:38:15;;;;;;;4.63;1.53;;;15.90;99.90;;;;;;20807879;28;20437;-77
2021/08/07 17:48:16;;;;;;;2.90;1.47;;;15.90;99.90;;;;;;20817734;28;20068;-77
2021/08/07 17:58:17;;;;;;;2.50;0.80;;;15.90;99.90;;;;;;20841701;28;20026;-77
2021/08/07 18:08:18;;;;;;;4.17;0.83;;;15.90;99.90;;;;;;20836581;28;20025;-76
2021/08/07 18:18:19;;;;;;;0.70;0.60;;;16.20;99.90;;;;;;20847238;28;20037;-78
2021/08/07 18:28:20;;;;;;;1.90;1.20;;;16.50;99.90;;;;;;20848253;28;20048;-78
2021/08/07 18:38:23;;;;;;;25.67;5.97;;;16.30;99.90;;;;;;20846535;28;20036;-78
2021/08/07 18:48:26;;;;;;;3.30;1.48;;;16.00;99.90;;;;;;20823430;28;20029;-77
2021/08/07 18:58:27;;;;;;;8.27;1.42;;;15.40;99.90;;;;;;20841419;28;20521;-78
2021/08/07 19:08:28;;;;;;;;;;;15.50;99.90;;;;;;20830435;28;20029;-78
2021/08/07 19:18:29;;;;;;;3.00;1.93;;;15.20;99.90;;;;;;20832814;28;19920;-77
2021/08/07 19:28:30;;;;;;;3.57;1.60;;;14.40;99.90;;;;;;20867291;28;20279;-77
2021/08/07 19:38:31;;;;;;;5.72;2.78;;;14.20;99.90;;;;;;20909165;28;20033;-77
2021/08/07 19:48:32;;;;;;;2.87;1.50;;;14.10;99.90;;;;;;20909045;28;20048;-77
2021/08/07 19:58:33;;;;;;;1.97;1.23;;;14.00;99.90;;;;;;20907708;28;20037;-77
2021/08/07 20:08:34;;;;;;;4.87;3.00;;;13.90;99.90;;;;;;20910778;28;20036;-77
2021/08/07 20:18:35;;;;;;;4.27;2.40;;;13.70;99.90;;;;;;20888865;28;20035;-77
2021/08/07 20:28:36;;;;;;;17.23;12.70;;;13.70;99.90;;;;;;20905788;28;20118;-77
2021/08/07 20:38:38;;;;;;;10.32;4.05;;;13.60;99.90;;;;;;20887378;28;20057;-77
2021/08/07 20:48:39;;;;;;;6.10;2.30;;;13.20;99.90;;;;;;20888265;28;20074;-77
2021/08/07 20:58:52;;;;;;;3.80;2.07;;;13.40;99.90;;;;;;20905677;28;20025;-77
2021/08/07 21:09:19;;;;;;;4.72;1.90;;;13.70;99.90;;;;;;20903341;28;20025;-76
2021/08/07 21:19:20;;;;;;;15.97;5.00;;;13.30;99.90;;;;;;20899755;28;20248;-76
2021/08/07 21:29:21;;;;;;;4.90;2.30;;;13.50;99.90;;;;;;20858362;28;20030;-77
2021/08/07 21:39:22;;;;;;;7.47;1.60;;;13.50;99.90;;;;;;20826869;28;20068;-77
2021/08/07 21:49:25;;;;;;;4.80;1.70;;;13.60;99.90;;;;;;20840820;28;20056;-78
2021/08/07 21:59:26;;;;;;;4.70;1.67;;;13.70;99.90;;;;;;20843221;28;20030;-79
2021/08/07 22:09:26;;;;;;;6.83;1.63;;;13.60;99.90;;;;;;20861355;28;20028;-79
2021/08/07 22:19:27;;;;;;;21.47;13.43;;;13.50;99.90;;;;;;20866466;28;20037;-78
2021/08/07 22:29:28;;;;;;;35.53;20.73;;;13.20;99.90;;;;;;20835061;28;20041;-77
2021/08/07 22:39:29;;;;;;;34.73;17.47;;;13.00;99.90;;;;;;20855335;28;20036;-77
2021/08/07 22:49:31;;;;;;;29.50;16.63;;;12.90;99.90;;;;;;20852956;28;20498;-77
2021/08/07 22:59:31;;;;;;;;;;;12.90;99.90;;;;;;20852077;28;20037;-77
2021/08/07 23:09:32;;;;;;;180.43;10.07;;;12.80;99.90;;;;;;20826445;28;19909;-77
2021/08/07 23:19:33;;;;;;;9.27;5.23;;;12.90;99.90;;;;;;20844979;28;20296;-77
2021/08/07 23:29:34;;;;;;;76.77;8.37;;;13.10;99.90;;;;;;20878816;28;20028;-78
2021/08/07 23:39:35;;;;;;;10.33;6.40;;;13.20;99.90;;;;;;20933143;28;20033;-78
2021/08/07 23:49:36;;;;;;;9.07;5.07;;;13.20;99.90;;;;;;20934791;28;20029;-78
2021/08/07 23:59:36;;;;;;;7.00;4.30;;;13.30;99.90;;;;;;20918454;28;20033;-78
